createdAt,value
2023-04-10T00:00:57.156Z,2.20
2023-04-10T00:03:25.609Z,2.20
2023-04-10T00:05:55.018Z,2.30
2023-04-10T00:08:23.433Z,2.30
2023-04-10T00:10:51.388Z,2.30
2023-04-10T00:13:19.094Z,2.40
2023-04-10T00:15:47.080Z,2.50
2023-04-10T00:18:14.830Z,2.50
2023-04-10T00:20:43.652Z,2.40
2023-04-10T00:23:12.792Z,2.40
2023-04-10T00:25:40.608Z,2.30
2023-04-10T00:28:08.370Z,2.20
2023-04-10T00:30:36.071Z,2.20
2023-04-10T00:33:04.075Z,2.20
2023-04-10T00:35:31.915Z,2.20
2023-04-10T00:37:59.695Z,2.20
2023-04-10T00:40:30.340Z,2.20
2023-04-10T00:42:58.110Z,2.20
2023-04-10T00:45:26.122Z,2.20
2023-04-10T00:47:54.129Z,2.10
2023-04-10T00:50:22.686Z,2.10
2023-04-10T00:52:51.778Z,2.20
2023-04-10T00:55:19.786Z,2.20
2023-04-10T00:57:49.565Z,2.30
2023-04-10T01:00:18.686Z,2.30
2023-04-10T01:02:46.619Z,2.20
2023-04-10T01:05:14.905Z,2.10
2023-04-10T01:07:55.487Z,2.00
2023-04-10T01:10:30.858Z,1.90
2023-04-10T01:13:09.729Z,2.00
2023-04-10T01:15:44.962Z,2.00
2023-04-10T01:18:20.491Z,1.80
2023-04-10T01:20:48.280Z,1.80
2023-04-10T01:23:53.832Z,1.70
2023-04-10T01:26:37.646Z,1.50
2023-04-10T01:29:09.392Z,1.50
2023-04-10T01:31:42.586Z,1.60
2023-04-10T01:34:16.182Z,1.60
2023-04-10T01:36:50.670Z,1.60
2023-04-10T01:39:20.780Z,1.60
2023-04-10T01:41:51.027Z,1.60
2023-04-10T01:44:25.657Z,1.70
2023-04-10T01:46:55.131Z,1.70
2023-04-10T01:49:24.870Z,1.70
2023-04-10T01:51:54.303Z,1.80
2023-04-10T01:54:22.477Z,1.80
2023-04-10T01:56:50.403Z,1.70
2023-04-10T01:59:20.025Z,1.70
2023-04-10T02:01:47.893Z,1.60
2023-04-10T02:04:15.724Z,1.50
2023-04-10T02:06:52.607Z,1.50
2023-04-10T02:09:24.238Z,1.50
2023-04-10T02:11:56.802Z,1.50
2023-04-10T02:14:29.346Z,1.40
2023-04-10T02:16:57.950Z,1.30
2023-04-10T02:19:28.388Z,1.30
2023-04-10T02:21:56.966Z,1.30
2023-04-10T02:24:24.883Z,1.20
2023-04-10T02:26:53.912Z,1.10
2023-04-10T02:29:21.769Z,1.10
2023-04-10T02:31:51.317Z,1.00
2023-04-10T02:34:19.100Z,1.00
2023-04-10T02:36:46.842Z,1.00
2023-04-10T02:39:14.614Z,1.10
2023-04-10T02:41:42.350Z,1.00
2023-04-10T02:44:10.117Z,1.00
2023-04-10T02:46:37.977Z,0.90
2023-04-10T02:49:07.811Z,1.00
2023-04-10T02:51:36.990Z,1.10
2023-04-10T02:54:04.990Z,1.10
2023-04-10T02:56:34.783Z,1.10
2023-04-10T02:59:02.575Z,1.00
2023-04-10T03:01:30.877Z,1.00
2023-04-10T03:03:59.022Z,1.00
2023-04-10T03:06:28.228Z,1.00
2023-04-10T03:08:56.202Z,1.00
2023-04-10T03:11:24.153Z,1.00
2023-04-10T03:13:52.164Z,0.80
2023-04-10T03:16:20.692Z,0.70
2023-04-10T03:18:48.662Z,0.80
2023-04-10T03:21:16.536Z,0.80
2023-04-10T03:23:46.470Z,0.80
2023-04-10T03:26:14.206Z,0.80
2023-04-10T03:28:41.961Z,0.80
2023-04-10T03:31:09.837Z,0.80
2023-04-10T03:33:37.782Z,0.70
2023-04-10T03:36:06.405Z,0.60
2023-04-10T03:38:34.262Z,0.60
2023-04-10T03:41:03.424Z,0.60
2023-04-10T03:43:31.579Z,0.50
2023-04-10T03:45:59.552Z,0.70
2023-04-10T03:48:28.550Z,0.60
2023-04-10T03:50:56.476Z,0.50
2023-04-10T03:53:24.375Z,0.40
2023-04-10T03:55:52.909Z,0.40
2023-04-10T03:58:22.054Z,0.30
2023-04-10T04:00:49.812Z,0.20
2023-04-10T04:03:17.740Z,0.20
2023-04-10T04:05:45.814Z,0.20
2023-04-10T04:08:14.070Z,0.20
2023-04-10T04:10:41.846Z,0.30
2023-04-10T04:13:09.639Z,0.20
2023-04-10T04:15:38.765Z,0.20
2023-04-10T04:18:06.653Z,0.30
2023-04-10T04:20:34.448Z,0.20
2023-04-10T04:23:02.185Z,0.20
2023-04-10T04:25:29.992Z,0.20
2023-04-10T04:27:57.835Z,0.20
2023-04-10T04:30:25.720Z,0.20
2023-04-10T04:32:54.905Z,0.20
2023-04-10T04:35:23.128Z,0.20
2023-04-10T04:37:50.862Z,0.20
2023-04-10T04:40:18.725Z,0.30
2023-04-10T04:42:46.464Z,0.30
2023-04-10T04:45:14.284Z,0.40
2023-04-10T04:47:42.207Z,0.40
2023-04-10T04:50:11.802Z,0.60
2023-04-10T04:52:39.551Z,0.70
2023-04-10T04:55:08.570Z,0.80
2023-04-10T04:57:36.356Z,0.90
2023-04-10T05:00:04.514Z,1.00
2023-04-10T05:02:32.312Z,1.10
2023-04-10T05:05:00.467Z,1.20
2023-04-10T05:07:29.549Z,1.20
2023-04-10T05:09:57.308Z,1.30
2023-04-10T05:12:25.091Z,1.20
2023-04-10T05:14:52.884Z,1.00
2023-04-10T05:17:20.660Z,1.00
2023-04-10T05:19:48.620Z,1.00
2023-04-10T05:22:18.546Z,1.10
2023-04-10T05:24:47.886Z,1.10
2023-04-10T05:27:15.675Z,1.20
2023-04-10T05:29:43.405Z,1.40
2023-04-10T05:32:11.146Z,1.60
2023-04-10T05:34:38.929Z,1.70
2023-04-10T05:37:06.768Z,1.80
2023-04-10T05:39:34.512Z,1.90
2023-04-10T05:42:03.573Z,1.90
2023-04-10T05:44:31.981Z,2.10
2023-04-10T05:46:59.705Z,2.40
2023-04-10T05:49:27.477Z,2.50
2023-04-10T05:51:55.234Z,2.70
2023-04-10T05:54:23.159Z,2.80
2023-04-10T05:56:51.041Z,2.90
2023-04-10T05:59:20.189Z,3.10
2023-04-10T06:01:48.093Z,3.10
2023-04-10T06:04:15.989Z,3.10
2023-04-10T06:06:43.899Z,3.20
2023-04-10T06:09:11.637Z,3.10
2023-04-10T06:11:39.466Z,3.50
2023-04-10T06:14:07.465Z,3.80
2023-04-10T06:16:36.704Z,4.00
2023-04-10T06:19:04.583Z,4.30
2023-04-10T06:21:32.731Z,4.60
2023-04-10T06:24:00.492Z,4.70
2023-04-10T06:26:28.299Z,4.90
2023-04-10T06:28:56.636Z,5.20
2023-04-10T06:31:25.480Z,5.50
2023-04-10T06:33:54.558Z,5.70
2023-04-10T06:36:22.347Z,6.00
2023-04-10T06:38:50.269Z,6.40
2023-04-10T06:41:17.970Z,6.80
2023-04-10T06:43:46.073Z,7.20
2023-04-10T06:46:14.293Z,7.40
2023-04-10T06:48:42.152Z,7.70
2023-04-10T06:51:11.220Z,7.90
2023-04-10T06:53:39.005Z,7.90
2023-04-10T06:56:08.193Z,7.70
2023-04-10T06:58:35.978Z,7.90
2023-04-10T07:01:04.745Z,8.20
2023-04-10T07:03:33.826Z,8.40
2023-04-10T07:06:03.356Z,8.80
2023-04-10T07:08:32.555Z,9.10
2023-04-10T07:11:00.333Z,8.70
2023-04-10T07:13:28.160Z,8.50
2023-04-10T07:15:56.054Z,8.40
2023-04-10T07:18:23.876Z,8.30
2023-04-10T07:20:52.421Z,8.30
2023-04-10T07:23:20.480Z,8.60
2023-04-10T07:25:49.556Z,9.00
2023-04-10T07:28:17.304Z,9.30
2023-04-10T07:30:45.024Z,9.80
2023-04-10T07:33:12.958Z,10.10
2023-04-10T07:35:40.939Z,10.40
2023-04-10T07:38:08.792Z,10.60
2023-04-10T07:40:36.502Z,11.00
2023-04-10T07:43:05.703Z,11.50
2023-04-10T07:45:33.863Z,11.60
2023-04-10T07:48:02.714Z,11.70
2023-04-10T07:50:31.391Z,11.90
2023-04-10T07:53:03.473Z,12.00
2023-04-10T07:55:31.258Z,11.90
2023-04-10T07:57:58.996Z,12.10
2023-04-10T08:00:28.063Z,12.30
2023-04-10T08:02:56.144Z,12.50
2023-04-10T08:05:24.172Z,12.40
2023-04-10T08:07:52.015Z,12.40
2023-04-10T08:10:20.252Z,12.60
2023-04-10T08:12:47.977Z,13.20
2023-04-10T08:15:16.475Z,13.70
2023-04-10T08:17:45.950Z,14.80
2023-04-10T08:20:14.451Z,15.80
2023-04-10T08:22:42.187Z,17.60
2023-04-10T08:25:10.726Z,18.90
2023-04-10T08:27:38.640Z,20.70
2023-04-10T08:30:07.359Z,23.20
2023-04-10T08:32:35.233Z,25.10
2023-04-10T08:35:04.681Z,27.20
2023-04-10T08:37:32.634Z,29.00
2023-04-10T08:40:00.446Z,29.00
2023-04-10T08:42:28.344Z,29.30
2023-04-10T08:44:56.184Z,30.20
2023-04-10T08:47:28.684Z,29.80
2023-04-10T08:49:58.917Z,31.00
2023-04-10T08:52:32.230Z,31.00
2023-04-10T08:55:03.537Z,31.90
2023-04-10T08:57:31.403Z,31.60
2023-04-10T09:00:04.067Z,31.00
2023-04-10T09:02:42.425Z,30.50
2023-04-10T09:05:13.142Z,31.40
2023-04-10T09:07:42.265Z,32.80
2023-04-10T09:10:11.022Z,32.20
2023-04-10T09:12:46.623Z,31.30
2023-04-10T09:15:15.372Z,30.80
2023-04-10T09:17:59.936Z,28.60
2023-04-10T09:20:29.860Z,28.20
2023-04-10T09:22:59.048Z,28.60
2023-04-10T09:25:32.522Z,29.20
2023-04-10T09:28:08.322Z,30.20
2023-04-10T09:30:37.875Z,31.20
2023-04-10T09:33:22.820Z,32.30
2023-04-10T09:35:51.506Z,32.80
2023-04-10T09:38:21.861Z,33.80
2023-04-10T09:40:51.082Z,33.70
2023-04-10T09:43:21.901Z,29.50
2023-04-10T09:45:54.050Z,27.70
2023-04-10T09:48:22.816Z,28.10
2023-04-10T09:50:51.468Z,28.60
2023-04-10T09:53:21.864Z,29.30
2023-04-10T09:55:50.836Z,27.80
2023-04-10T09:58:19.012Z,28.40
2023-04-10T10:00:48.621Z,29.60
2023-04-10T10:03:18.127Z,26.90
2023-04-10T10:05:47.393Z,25.00
2023-04-10T10:08:16.558Z,25.70
2023-04-10T10:10:49.375Z,27.40
2023-04-10T10:13:20.819Z,29.20
2023-04-10T10:15:55.797Z,29.80
2023-04-10T10:18:33.061Z,27.60
2023-04-10T10:21:01.794Z,25.50
2023-04-10T10:23:30.206Z,26.60
2023-04-10T10:26:02.531Z,28.10
2023-04-10T10:28:34.126Z,28.10
2023-04-10T10:31:04.219Z,26.10
2023-04-10T10:33:33.250Z,24.00
2023-04-10T10:36:01.528Z,24.00
2023-04-10T10:38:29.505Z,25.60
2023-04-10T10:41:03.599Z,24.50
2023-04-10T10:43:44.037Z,23.90
2023-04-10T10:46:18.374Z,23.80
2023-04-10T10:48:57.359Z,25.00
2023-04-10T10:51:25.127Z,26.80
2023-04-10T10:53:52.995Z,28.10
2023-04-10T10:56:37.844Z,29.00
2023-04-10T10:59:05.730Z,30.00
2023-04-10T11:01:33.599Z,29.60
2023-04-10T11:04:02.311Z,29.10
2023-04-10T11:06:49.972Z,28.20
2023-04-10T11:09:48.775Z,28.90
2023-04-10T11:12:20.393Z,26.90
2023-04-10T11:14:58.749Z,24.60
2023-04-10T11:17:49.651Z,24.00
2023-04-10T11:20:18.121Z,22.30
2023-04-10T11:23:08.718Z,21.30
2023-04-10T11:25:50.392Z,22.60
2023-04-10T11:28:38.357Z,22.50
2023-04-10T11:31:20.966Z,20.90
2023-04-10T11:33:49.625Z,20.20
2023-04-10T11:36:18.544Z,20.20
2023-04-10T11:38:57.275Z,20.10
2023-04-10T11:41:30.407Z,20.00
2023-04-10T11:43:59.775Z,19.50
2023-04-10T11:46:27.724Z,18.90
2023-04-10T11:48:57.241Z,18.60
2023-04-10T11:51:27.092Z,18.60
2023-04-10T11:54:07.119Z,18.60
2023-04-10T11:56:35.425Z,18.90
2023-04-10T11:59:07.514Z,19.00
2023-04-10T12:01:35.724Z,19.00
2023-04-10T12:04:03.990Z,18.90
2023-04-10T12:06:32.903Z,19.00
2023-04-10T12:09:00.659Z,19.10
2023-04-10T12:11:29.669Z,18.60
2023-04-10T12:13:58.920Z,18.00
2023-04-10T12:16:28.415Z,18.00
2023-04-10T12:18:56.402Z,18.50
2023-04-10T12:21:24.478Z,18.20
2023-04-10T12:23:53.053Z,17.90
2023-04-10T12:26:22.524Z,17.70
2023-04-10T12:28:55.013Z,18.00
2023-04-10T12:31:31.750Z,18.40
2023-04-10T12:34:01.294Z,18.90
2023-04-10T12:36:32.265Z,19.30
2023-04-10T12:39:01.420Z,19.60
2023-04-10T12:41:31.178Z,19.90
2023-04-10T12:44:09.327Z,20.10
2023-04-10T12:46:38.813Z,20.30
2023-04-10T12:49:11.485Z,20.10
2023-04-10T12:51:47.353Z,20.00
2023-04-10T12:54:32.218Z,19.80
2023-04-10T12:57:00.650Z,19.40
2023-04-10T12:59:29.083Z,19.10
2023-04-10T13:01:58.537Z,19.00
2023-04-10T13:04:26.988Z,19.00
2023-04-10T13:06:54.860Z,18.70
2023-04-10T13:09:22.744Z,18.70
2023-04-10T13:11:52.350Z,18.70
2023-04-10T13:14:20.119Z,18.90
2023-04-10T13:16:48.244Z,19.00
2023-04-10T13:19:17.679Z,19.00
2023-04-10T13:21:45.444Z,18.80
2023-04-10T13:24:15.321Z,18.60
2023-04-10T13:26:44.366Z,18.50
2023-04-10T13:29:12.087Z,18.30
2023-04-10T13:31:39.898Z,18.10
2023-04-10T13:34:07.678Z,18.10
2023-04-10T13:36:36.956Z,18.10
2023-04-10T13:39:04.877Z,18.30
2023-04-10T13:41:32.679Z,18.30
2023-04-10T13:44:00.548Z,18.30
2023-04-10T13:46:28.368Z,18.10
2023-04-10T13:48:56.322Z,18.00
2023-04-10T13:51:24.280Z,17.70
2023-04-10T13:53:53.451Z,17.60
2023-04-10T13:56:21.190Z,17.60
2023-04-10T13:58:49.529Z,17.60
2023-04-10T14:01:17.341Z,17.60
2023-04-10T14:03:45.324Z,17.60
2023-04-10T14:06:14.228Z,17.70
2023-04-10T14:08:42.041Z,17.60
2023-04-10T14:11:11.118Z,17.60
2023-04-10T14:13:38.900Z,17.80
2023-04-10T14:16:07.839Z,18.00
2023-04-10T14:18:37.546Z,18.00
2023-04-10T14:21:05.582Z,17.90
2023-04-10T14:23:33.340Z,17.90
2023-04-10T14:26:01.147Z,18.00
2023-04-10T14:28:31.513Z,18.00
2023-04-10T14:30:59.316Z,18.10
2023-04-10T14:33:27.264Z,18.10
2023-04-10T14:35:55.203Z,18.20
2023-04-10T14:38:23.108Z,18.00
2023-04-10T14:40:50.966Z,17.90
2023-04-10T14:43:19.547Z,17.80
2023-04-10T14:45:48.763Z,17.80
2023-04-10T14:48:16.886Z,18.00
2023-04-10T14:50:44.661Z,18.10
2023-04-10T14:53:12.574Z,18.20
2023-04-10T14:55:40.397Z,18.20
2023-04-10T14:58:09.102Z,18.20
2023-04-10T15:00:36.866Z,18.30
2023-04-10T15:03:06.702Z,18.30
2023-04-10T15:05:34.581Z,18.20
2023-04-10T15:08:02.409Z,18.10
2023-04-10T15:10:30.714Z,17.90
2023-04-10T15:12:58.496Z,17.70
2023-04-10T15:15:26.303Z,17.50
2023-04-10T15:17:54.159Z,17.30
2023-04-10T15:20:23.278Z,17.10
2023-04-10T15:22:51.274Z,16.80
2023-04-10T15:25:19.399Z,16.70
2023-04-10T15:27:47.163Z,16.70
2023-04-10T15:30:15.139Z,16.80
2023-04-10T15:32:43.068Z,16.90
2023-04-10T15:35:11.166Z,16.90
2023-04-10T15:37:40.239Z,16.90
2023-04-10T15:40:10.474Z,16.80
2023-04-10T15:42:38.739Z,16.70
2023-04-10T15:45:07.274Z,16.60
2023-04-10T15:47:35.105Z,16.50
2023-04-10T15:50:02.977Z,16.40
2023-04-10T15:52:32.714Z,16.40
2023-04-10T15:55:01.812Z,16.40
2023-04-10T15:57:29.647Z,16.40
2023-04-10T16:00:00.402Z,16.40
2023-04-10T16:02:28.624Z,16.30
2023-04-10T16:04:56.820Z,16.40
2023-04-10T16:07:24.698Z,16.50
2023-04-10T16:09:55.072Z,16.40
2023-04-10T16:12:24.217Z,16.40
2023-04-10T16:14:52.125Z,16.30
2023-04-10T16:17:19.986Z,16.40
2023-04-10T16:19:47.870Z,16.40
2023-04-10T16:22:15.765Z,16.50
2023-04-10T16:24:43.517Z,16.50
2023-04-10T16:27:11.388Z,16.50
2023-04-10T16:29:40.556Z,16.60
2023-04-10T16:32:08.346Z,16.60
2023-04-10T16:34:36.125Z,16.50
2023-04-10T16:37:03.988Z,16.40
2023-04-10T16:39:31.801Z,16.40
2023-04-10T16:42:00.696Z,16.40
2023-04-10T16:44:28.478Z,16.30
2023-04-10T16:46:57.974Z,16.40
2023-04-10T16:49:25.801Z,16.30
2023-04-10T16:51:53.577Z,16.20
2023-04-10T16:54:21.367Z,16.10
2023-04-10T16:56:49.218Z,16.00
2023-04-10T16:59:17.121Z,15.90
2023-04-10T17:01:44.929Z,15.70
2023-04-10T17:04:16.641Z,15.60
2023-04-10T17:06:44.478Z,15.30
2023-04-10T17:09:12.237Z,15.20
2023-04-10T17:11:40.045Z,15.10
2023-04-10T17:14:09.096Z,15.00
2023-04-10T17:16:37.089Z,14.70
2023-04-10T17:19:05.027Z,14.50
2023-04-10T17:21:34.573Z,14.20
2023-04-10T17:24:02.296Z,14.00
2023-04-10T17:26:31.980Z,13.80
2023-04-10T17:28:59.739Z,13.70
2023-04-10T17:31:27.610Z,13.50
2023-04-10T17:33:55.581Z,13.40
2023-04-10T17:36:23.421Z,13.40
2023-04-10T17:38:54.152Z,13.30
2023-04-10T17:41:22.148Z,13.20
2023-04-10T17:43:50.112Z,13.20
2023-04-10T17:46:18.013Z,13.20
2023-04-10T17:48:46.461Z,13.20
2023-04-10T17:51:14.264Z,13.20
2023-04-10T17:53:42.069Z,13.20
2023-04-10T17:56:19.088Z,13.20
2023-04-10T17:58:46.898Z,13.20
2023-04-10T18:01:22.235Z,13.30
2023-04-10T18:03:50.154Z,13.10
2023-04-10T18:06:17.966Z,13.10
2023-04-10T18:08:45.855Z,13.10
2023-04-10T18:11:14.990Z,13.00
2023-04-10T18:13:42.777Z,13.00
2023-04-10T18:16:11.893Z,12.90
2023-04-10T18:18:41.848Z,12.90
2023-04-10T18:21:10.462Z,12.80
2023-04-10T18:23:39.433Z,12.80
2023-04-10T18:26:07.806Z,12.80
2023-04-10T18:28:37.917Z,12.80
2023-04-10T18:31:06.854Z,12.70
2023-04-10T18:33:34.983Z,12.70
2023-04-10T18:36:03.526Z,12.60
2023-04-10T18:38:31.609Z,12.60
2023-04-10T18:40:59.570Z,12.60
2023-04-10T18:43:28.346Z,12.40
2023-04-10T18:45:58.123Z,12.40
2023-04-10T18:48:25.945Z,12.30
2023-04-10T18:50:54.227Z,12.30
2023-04-10T18:53:22.627Z,12.30
2023-04-10T18:55:51.985Z,12.30
2023-04-10T18:58:20.350Z,12.40
2023-04-10T19:00:48.320Z,12.30
2023-04-10T19:03:17.629Z,12.20
2023-04-10T19:05:45.980Z,12.10
2023-04-10T19:08:14.607Z,12.10
2023-04-10T19:10:43.035Z,12.10
2023-04-10T19:13:12.610Z,12.10
2023-04-10T19:15:42.477Z,12.00
2023-04-10T19:18:12.313Z,12.10
2023-04-10T19:20:49.860Z,12.10
2023-04-10T19:23:19.331Z,12.10
2023-04-10T19:25:47.130Z,12.10
2023-04-10T19:28:14.958Z,12.10
2023-04-10T19:30:42.748Z,12.10
2023-04-10T19:33:10.580Z,12.10
2023-04-10T19:35:38.392Z,12.10
2023-04-10T19:38:07.539Z,12.20
2023-04-10T19:40:37.218Z,12.20
2023-04-10T19:43:05.356Z,12.20
2023-04-10T19:45:33.332Z,12.20
2023-04-10T19:48:01.185Z,12.20
2023-04-10T19:50:30.149Z,12.20
2023-04-10T19:52:58.196Z,12.20
2023-04-10T19:55:28.838Z,12.30
2023-04-10T19:57:56.848Z,12.20
2023-04-10T20:00:24.630Z,12.20
2023-04-10T20:02:52.822Z,12.20
2023-04-10T20:05:20.987Z,12.20
2023-04-10T20:07:48.835Z,12.20
2023-04-10T20:10:16.706Z,12.20
2023-04-10T20:12:45.785Z,12.20
2023-04-10T20:15:13.693Z,12.30
2023-04-10T20:17:41.503Z,12.30
2023-04-10T20:20:12.146Z,12.20
2023-04-10T20:22:39.906Z,12.10
2023-04-10T20:25:08.764Z,12.00
2023-04-10T20:27:36.511Z,12.00
2023-04-10T20:30:07.208Z,12.00
2023-04-10T20:32:35.022Z,12.00
2023-04-10T20:35:02.887Z,11.90
2023-04-10T20:37:30.686Z,11.90
2023-04-10T20:39:58.543Z,12.00
2023-04-10T20:42:26.301Z,12.00
2023-04-10T20:44:55.400Z,11.90
2023-04-10T20:47:24.591Z,11.90
2023-04-10T20:49:52.376Z,11.90
2023-04-10T20:52:20.115Z,12.00
2023-04-10T20:54:47.886Z,11.90
2023-04-10T20:57:15.663Z,11.80
2023-04-10T20:59:43.814Z,11.70
2023-04-10T21:02:11.629Z,11.70
2023-04-10T21:04:40.885Z,11.80
2023-04-10T21:07:08.638Z,11.80
2023-04-10T21:09:36.434Z,11.90
2023-04-10T21:12:04.537Z,11.90
2023-04-10T21:14:32.394Z,12.00
2023-04-10T21:17:00.253Z,12.00
2023-04-10T21:19:28.248Z,11.90
2023-04-10T21:21:58.590Z,12.00
2023-04-10T21:24:26.373Z,12.00
2023-04-10T21:26:54.120Z,11.90
2023-04-10T21:29:21.843Z,11.90
2023-04-10T21:31:50.616Z,11.90
2023-04-10T21:34:18.536Z,11.90
2023-04-10T21:36:46.321Z,12.00
2023-04-10T21:39:15.395Z,12.00
2023-04-10T21:41:43.158Z,12.00
2023-04-10T21:44:10.887Z,12.00
2023-04-10T21:46:38.608Z,12.00
2023-04-10T21:49:07.437Z,12.00
2023-04-10T21:51:35.330Z,12.10
2023-04-10T21:54:03.082Z,12.00
2023-04-10T21:56:32.137Z,12.00
2023-04-10T21:58:59.875Z,12.00
2023-04-10T22:01:27.652Z,12.10
2023-04-10T22:03:55.522Z,11.90
2023-04-10T22:06:23.329Z,11.90
2023-04-10T22:08:51.097Z,11.90
2023-04-10T22:11:18.928Z,11.80
2023-04-10T22:13:48.015Z,11.80
2023-04-10T22:16:15.754Z,11.90
2023-04-10T22:18:43.558Z,11.90
2023-04-10T22:21:13.247Z,11.90
2023-04-10T22:23:41.111Z,11.90
2023-04-10T22:26:08.889Z,11.90
2023-04-10T22:28:36.620Z,11.90
2023-04-10T22:31:06.061Z,11.80
2023-04-10T22:33:34.083Z,11.80
2023-04-10T22:36:01.914Z,11.70
2023-04-10T22:38:29.684Z,11.80
2023-04-10T22:40:57.439Z,11.80
2023-04-10T22:43:25.486Z,11.70
2023-04-10T22:45:53.268Z,11.70
2023-04-10T22:48:22.394Z,11.70
2023-04-10T22:50:50.179Z,11.70
2023-04-10T22:53:17.924Z,11.80
2023-04-10T22:55:45.793Z,11.80
2023-04-10T22:58:13.494Z,11.80
2023-04-10T23:00:41.259Z,11.70
2023-04-10T23:03:09.090Z,11.70
2023-04-10T23:05:38.194Z,11.70
2023-04-10T23:08:05.954Z,11.70
2023-04-10T23:10:33.737Z,11.70
2023-04-10T23:13:01.736Z,11.70
2023-04-10T23:15:29.477Z,11.70
2023-04-10T23:17:57.303Z,11.70
2023-04-10T23:20:25.588Z,11.70
2023-04-10T23:22:56.153Z,11.50
2023-04-10T23:25:24.142Z,11.60
2023-04-10T23:27:52.343Z,11.60
2023-04-10T23:30:20.117Z,11.50
2023-04-10T23:32:47.902Z,11.40
2023-04-10T23:35:15.750Z,11.40
2023-04-10T23:37:43.477Z,11.30
2023-04-10T23:40:13.635Z,11.40
2023-04-10T23:42:41.369Z,11.40
2023-04-10T23:45:10.245Z,11.40
2023-04-10T23:47:38.066Z,11.30
2023-04-10T23:50:07.034Z,11.20
2023-04-10T23:52:34.807Z,11.30
2023-04-10T23:55:02.579Z,11.20
2023-04-10T23:57:31.634Z,11.20
2023-04-10T23:59:59.906Z,11.10
